Time;durP1;ratioP1;P1;durP2;ratioP2;P2;SDS_P1;SDS_P2;PMS_P1;PMS_P2;Temp;Humidity;BMP_temperature;BMP_pressure;BME280_temperature;BME280_humidity;BME280_pressure;Samples;Min_cycle;Max_cycle;Signal;HPM_P1;HPM_P2
2023/03/27 00:01:56;;;;;;;2.30;2.10;;;;;;;10.93;54.79;100747.94;106250;1259;1003344;-49
2023/03/27 00:04:25;;;;;;;1.90;1.70;;;;;;;10.87;54.84;100748.92;106984;1269;22529;-49
2023/03/27 00:06:53;;;;;;;3.50;2.10;;;;;;;10.82;54.83;100749.91;106972;1270;25296;-49
2023/03/27 00:09:22;;;;;;;3.90;2.30;;;;;;;10.78;55.04;100756.26;106934;1269;25350;-49
2023/03/27 00:12:02;;;;;;;3.50;3.20;;;;;;;10.74;55.11;100757.05;106905;1270;25357;-49
2023/03/27 00:14:33;;;;;;;4.70;4.20;;;;;;;10.70;55.18;100747.23;106980;1268;25405;-49
2023/03/27 00:17:03;;;;;;;4.60;3.90;;;;;;;10.66;55.16;100748.73;106956;1269;22537;-48
2023/03/27 00:19:43;;;;;;;6.10;2.90;;;;;;;10.62;55.31;100751.75;106592;1276;25418;-49
2023/03/27 00:22:15;;;;;;;4.70;2.30;;;;;;;10.59;55.41;100747.83;106994;1270;25564;-49
2023/03/27 00:24:44;;;;;;;3.50;2.30;;;;;;;10.58;55.47;100748.90;106780;1273;22596;-49
2023/03/27 00:27:20;;;;;;;1.80;1.70;;;;;;;10.57;55.48;100749.78;106808;1275;25376;-49
2023/03/27 00:29:49;;;;;;;2.90;2.10;;;;;;;10.57;55.59;100754.48;106937;1270;25356;-49
2023/03/27 00:32:18;;;;;;;3.00;2.30;;;;;;;10.56;55.63;100753.97;106974;1272;25479;-49
2023/03/27 00:34:46;;;;;;;2.90;2.30;;;;;;;10.56;55.68;100753.45;106145;1272;1002521;-49
2023/03/27 00:37:15;;;;;;;2.10;1.90;;;;;;;10.55;55.55;100757.44;106819;1269;25297;-49
2023/03/27 00:39:48;;;;;;;2.90;2.20;;;;;;;10.55;55.50;100757.13;106745;1275;25558;-49
2023/03/27 00:42:21;;;;;;;2.70;1.70;;;;;;;10.56;55.47;100759.70;106767;1274;25226;-49
2023/03/27 00:44:51;;;;;;;1.80;1.60;;;;;;;10.55;55.49;100760.06;106762;1273;25312;-49
2023/03/27 00:47:36;;;;;;;2.60;2.00;;;;;;;10.55;55.56;100751.90;106718;1272;25367;-49
2023/03/27 00:50:08;;;;;;;3.40;2.10;;;;;;;10.56;55.60;100739.93;106759;1273;22576;-48
2023/03/27 00:52:38;;;;;;;2.80;2.20;;;;;;;10.56;55.76;100736.97;106648;1273;24665;-49
2023/03/27 00:55:09;;;;;;;3.40;2.40;;;;;;;10.56;55.79;100735.06;106786;1272;25261;-49
2023/03/27 00:57:39;;;;;;;2.50;2.00;;;;;;;10.56;55.71;100731.94;106788;1273;24265;-49
2023/03/27 01:00:12;;;;;;;3.20;2.00;;;;;;;10.56;55.64;100734.20;106423;1273;22531;-50
2023/03/27 01:02:43;;;;;;;3.10;2.50;;;;;;;10.53;55.59;100735.83;105930;1279;1003347;-50
2023/03/27 01:05:12;;;;;;;2.40;2.00;;;;;;;10.53;55.71;100740.17;106700;1273;22521;-50
2023/03/27 01:07:41;;;;;;;3.00;2.10;;;;;;;10.51;55.64;100744.89;106767;1273;22574;-50
2023/03/27 01:10:46;;;;;;;9.00;2.40;;;;;;;10.46;55.70;100746.90;106655;1275;25328;-50
2023/03/27 01:13:22;;;;;;;2.70;2.00;;;;;;;10.38;55.80;100746.20;106972;1269;24205;-49
2023/03/27 01:16:07;;;;;;;3.00;2.20;;;;;;;10.36;55.99;100744.87;106842;1270;24255;-50
2023/03/27 01:18:46;;;;;;;2.30;2.10;;;;;;;10.37;56.17;100746.74;106873;1270;24513;-50
2023/03/27 01:21:37;;;;;;;2.80;2.20;;;;;;;10.39;56.22;100748.09;106831;1269;25330;-50
2023/03/27 01:24:29;;;;;;;1.90;1.70;;;;;;;10.42;56.34;100747.51;106859;1273;25328;-50
2023/03/27 01:27:15;;;;;;;2.20;1.70;;;;;;;10.45;56.37;100747.96;106190;1269;1002658;-50
2023/03/27 01:30:03;;;;;;;2.40;1.70;;;;;;;10.48;56.20;100746.52;106895;1273;22607;-50
2023/03/27 01:32:48;;;;;;;2.70;2.00;;;;;;;10.47;56.11;100745.14;106174;1270;1003009;-48
2023/03/27 01:35:29;;;;;;;3.40;1.90;;;;;;;10.48;56.05;100744.08;106796;1275;24222;-48
2023/03/27 01:38:05;;;;;;;2.20;2.00;;;;;;;10.48;55.89;100735.42;106909;1272;25465;-48
2023/03/27 01:40:45;;;;;;;2.20;1.90;;;;;;;10.50;55.92;100726.86;106239;1270;1003675;-48
2023/03/27 01:43:16;;;;;;;2.30;2.10;;;;;;;10.54;55.82;100723.52;106822;1276;25324;-48
2023/03/27 01:46:19;;;;;;;3.70;2.50;;;;;;;10.53;55.87;100726.63;106951;1270;25341;-48
2023/03/27 01:49:15;;;;;;;3.60;2.50;;;;;;;10.48;56.21;100729.34;106354;1283;22612;-49
2023/03/27 01:51:55;;;;;;;2.20;2.00;;;;;;;10.40;56.62;100735.42;105970;1284;25414;-48
2023/03/27 01:54:27;;;;;;;2.00;1.80;;;;;;;10.45;56.80;100737.56;105847;1287;25537;-48
2023/03/27 01:57:11;;;;;;;1.90;1.80;;;;;;;10.52;56.81;100736.02;105635;1290;25611;-48
2023/03/27 01:59:40;;;;;;;2.40;2.20;;;;;;;10.55;57.04;100739.44;105729;1289;22553;-48
2023/03/27 02:02:12;;;;;;;2.00;1.80;;;;;;;10.49;57.27;100737.46;105720;1286;25541;-48
2023/03/27 02:04:47;;;;;;;2.30;1.80;;;;;;;10.43;57.39;100740.73;105763;1286;25381;-48
2023/03/27 02:07:19;;;;;;;3.00;2.10;;;;;;;10.44;57.31;100744.34;105642;1286;22604;-48
2023/03/27 02:09:50;;;;;;;2.30;2.00;;;;;;;10.48;57.40;100749.80;105768;1286;23925;-49
2023/03/27 02:12:25;;;;;;;2.90;2.20;;;;;;;10.52;57.46;100743.48;105613;1287;25362;-48
2023/03/27 02:14:55;;;;;;;3.60;2.50;;;;;;;10.53;57.44;100742.94;105728;1288;22595;-48
2023/03/27 02:18:04;;;;;;;2.90;1.90;;;;;;;10.53;57.27;100742.43;105688;1288;25344;-48
2023/03/27 02:20:34;;;;;;;2.80;2.50;;;;;;;10.51;57.17;100744.34;105615;1286;22678;-48
2023/03/27 02:23:03;;;;;;;2.60;1.80;;;;;;;10.51;56.94;100742.80;105652;1286;22561;-49
2023/03/27 02:25:38;;;;;;;2.50;2.20;;;;;;;10.52;56.75;100752.50;105735;1280;26528;-48
2023/03/27 02:28:29;;;;;;;2.50;2.20;;;;;;;10.56;56.76;100758.84;105375;1281;1003225;-49
2023/03/27 02:31:14;;;;;;;3.70;2.50;;;;;;;10.59;56.64;100749.92;106884;1269;23167;-48
2023/03/27 02:34:03;;;;;;;2.90;2.40;;;;;;;10.60;56.36;100763.93;106949;1269;25343;-48
2023/03/27 02:36:42;;;;;;;;;;;;;;;10.61;56.21;100752.46;106887;1273;22628;-48
2023/03/27 02:39:19;;;;;;;3.90;2.30;;;;;;;10.61;56.03;100746.22;106930;1270;22519;-48
2023/03/27 02:41:54;;;;;;;2.90;2.10;;;;;;;10.57;55.89;100750.48;106924;1271;22655;-49
2023/03/27 02:45:05;;;;;;;3.50;2.30;;;;;;;10.56;55.92;100751.02;106930;1273;25231;-48
2023/03/27 02:47:42;;;;;;;2.20;2.00;;;;;;;10.56;55.88;100745.65;106936;1270;25378;-48
2023/03/27 02:51:00;;;;;;;2.10;2.00;;;;;;;10.53;55.78;100750.04;106794;1269;24219;-48
2023/03/27 02:53:37;;;;;;;2.80;2.10;;;;;;;10.42;55.82;100763.29;105967;1282;25425;-49
2023/03/27 02:56:06;;;;;;;2.30;1.80;;;;;;;10.40;55.56;100763.86;105919;1282;24255;-49
2023/03/27 02:58:48;;;;;;;4.00;2.40;;;;;;;10.39;55.56;100759.19;105835;1281;22533;-49
2023/03/27 03:01:37;;;;;;;4.30;2.60;;;;;;;10.38;55.58;100754.20;106060;1282;25337;-49
2023/03/27 03:04:15;;;;;;;2.80;2.10;;;;;;;10.36;55.60;100744.00;105920;1271;25344;-49
2023/03/27 03:07:10;;;;;;;2.90;2.20;;;;;;;10.31;55.76;100745.31;106094;1282;25451;-49
2023/03/27 03:09:40;;;;;;;3.00;2.20;;;;;;;10.27;56.12;100744.01;105923;1280;22978;-49
2023/03/27 03:12:09;;;;;;;3.20;2.30;;;;;;;10.24;55.97;100743.21;105747;1288;25451;-50
2023/03/27 03:14:43;;;;;;;3.40;2.30;;;;;;;10.22;56.07;100743.60;105764;1288;25359;-49
2023/03/27 03:17:12;;;;;;;3.20;2.20;;;;;;;10.21;55.67;100743.10;105886;1285;23746;-49
2023/03/27 03:19:40;;;;;;;3.90;2.30;;;;;;;10.32;55.22;100740.61;105629;1285;357249;-49
2023/03/27 03:22:10;;;;;;;4.40;2.60;;;;;;;10.33;55.21;100742.15;105099;1286;1002950;-49
2023/03/27 03:24:40;;;;;;;3.50;2.60;;;;;;;10.30;55.14;100735.96;105753;1284;22554;-50
2023/03/27 03:27:13;;;;;;;4.00;2.60;;;;;;;10.17;55.58;100738.16;105765;1289;25569;-49
2023/03/27 03:29:55;;;;;;;4.50;2.20;;;;;;;10.13;55.94;100732.53;105971;1281;25530;-50
2023/03/27 03:32:35;;;;;;;3.20;2.10;;;;;;;10.11;55.98;100744.52;105971;1277;1003628;-49
2023/03/27 03:35:08;;;;;;;5.00;2.80;;;;;;;10.09;55.94;100747.83;106668;1276;22538;-49
2023/03/27 03:37:37;;;;;;;2.40;2.10;;;;;;;10.09;55.84;100745.05;106709;1276;22537;-49
2023/03/27 03:40:13;;;;;;;4.20;2.10;;;;;;;10.07;55.94;100745.42;106392;1280;25331;-50
2023/03/27 03:42:46;;;;;;;3.10;2.40;;;;;;;10.06;56.11;100749.25;106576;1270;25328;-50
2023/03/27 03:45:19;;;;;;;2.50;2.30;;;;;;;10.05;56.21;100741.14;106751;1270;26712;-50
2023/03/27 03:47:49;;;;;;;4.00;2.30;;;;;;;10.04;56.39;100740.63;106050;1271;1002999;-49
2023/03/27 03:50:17;;;;;;;4.40;2.20;;;;;;;10.04;56.32;100741.85;106946;1269;25363;-50
2023/03/27 03:52:46;;;;;;;4.70;2.20;;;;;;;10.03;56.46;100740.48;107004;1269;25408;-50
2023/03/27 03:55:15;;;;;;;5.10;2.10;;;;;;;10.04;56.41;100740.81;106768;1269;25366;-49
2023/03/27 03:57:49;;;;;;;4.30;2.20;;;;;;;10.03;56.09;100740.31;106950;1269;25331;-50
2023/03/27 04:00:24;;;;;;;5.20;2.30;;;;;;;10.01;56.06;100735.48;106930;1270;23404;-50
2023/03/27 04:02:56;;;;;;;4.70;2.90;;;;;;;10.00;56.34;100733.60;106834;1270;25398;-50
2023/03/27 04:05:25;;;;;;;4.10;2.60;;;;;;;10.00;56.21;100731.36;106753;1275;24314;-50
2023/03/27 04:07:58;;;;;;;5.80;2.70;;;;;;;10.00;56.49;100731.17;106913;1259;24245;-51
2023/03/27 04:10:31;;;;;;;5.10;2.50;;;;;;;10.01;56.73;100728.75;106818;1269;25325;-50
2023/03/27 04:13:02;;;;;;;3.80;2.40;;;;;;;10.01;56.59;100732.91;106827;1270;23064;-50
2023/03/27 04:15:35;;;;;;;3.20;2.60;;;;;;;10.02;56.50;100725.24;106849;1269;25318;-49
2023/03/27 04:18:31;;;;;;;3.90;2.70;;;;;;;10.03;56.70;100716.56;106908;1269;25426;-50
2023/03/27 04:21:02;;;;;;;3.00;2.30;;;;;;;10.06;56.90;100718.42;106947;1270;25356;-50
2023/03/27 04:23:32;;;;;;;2.70;2.30;;;;;;;10.09;56.82;100714.19;106837;1270;24234;-51
2023/03/27 04:26:00;;;;;;;3.60;2.20;;;;;;;10.13;56.86;100703.92;106848;1273;24250;-50
2023/03/27 04:28:58;;;;;;;2.40;2.20;;;;;;;10.20;57.06;100707.58;106231;1270;1003513;-50
2023/03/27 04:31:50;;;;;;;3.60;2.50;;;;;;;10.26;57.23;100709.89;106646;1270;25370;-50
2023/03/27 04:34:45;;;;;;;4.00;2.90;;;;;;;10.31;57.53;100708.22;106866;1269;25343;-49
2023/03/27 04:37:18;;;;;;;4.30;2.60;;;;;;;10.36;57.82;100711.40;107002;1269;25344;-50
2023/03/27 04:40:24;;;;;;;3.50;2.20;;;;;;;10.42;57.97;100711.95;106694;1276;22676;-50
2023/03/27 04:42:54;;;;;;;5.30;2.70;;;;;;;10.58;57.91;100715.59;107006;1269;22539;-50
2023/03/27 04:45:24;;;;;;;4.80;2.50;;;;;;;10.69;57.78;100716.20;106967;1270;22525;-50
2023/03/27 04:47:55;;;;;;;6.90;3.10;;;;;;;10.64;58.19;100719.79;106947;1270;25357;-51
2023/03/27 04:50:23;;;;;;;9.90;3.70;;;;;;;10.65;58.37;100716.98;106682;1270;22526;-50
2023/03/27 04:52:57;;;;;;;6.80;3.20;;;;;;;10.71;58.56;100717.21;106971;1270;24340;-49
2023/03/27 04:55:29;;;;;;;7.10;3.10;;;;;;;10.77;58.86;100720.87;106801;1270;25357;-49
2023/03/27 04:57:58;;;;;;;7.80;3.30;;;;;;;10.83;59.05;100726.64;106990;1268;25367;-50
2023/03/27 05:00:29;;;;;;;12.50;4.60;;;;;;;10.89;59.05;100729.63;106778;1272;25333;-49
2023/03/27 05:03:17;;;;;;;10.90;4.20;;;;;;;11.03;58.89;100731.19;106737;1271;25325;-50
2023/03/27 05:06:04;;;;;;;9.50;3.80;;;;;;;11.15;58.65;100738.88;106851;1276;25346;-49
2023/03/27 05:08:34;;;;;;;8.90;3.60;;;;;;;11.26;58.64;100738.09;106831;1258;24222;-49
2023/03/27 05:11:03;;;;;;;8.60;4.10;;;;;;;11.35;58.64;100737.52;106985;1270;22525;-49
2023/03/27 05:13:45;;;;;;;11.70;4.20;;;;;;;11.41;58.83;100735.63;106886;1270;25360;-49
2023/03/27 05:16:16;;;;;;;8.30;4.00;;;;;;;11.47;58.90;100735.83;106822;1270;24320;-49
2023/03/27 05:18:46;;;;;;;6.00;4.00;;;;;;;11.53;58.99;100738.63;106958;1269;23896;-50
2023/03/27 05:21:14;;;;;;;6.20;3.10;;;;;;;11.59;59.14;100729.27;106913;1270;22539;-50
2023/03/27 05:23:43;;;;;;;5.30;3.80;;;;;;;11.62;59.46;100731.63;106896;1268;25317;-50
2023/03/27 05:26:12;;;;;;;4.60;3.00;;;;;;;11.68;59.73;100732.18;106780;1270;22542;-50
2023/03/27 05:28:58;;;;;;;7.20;3.50;;;;;;;11.73;59.98;100731.17;106894;1270;25366;-50
2023/03/27 05:31:27;;;;;;;6.00;3.10;;;;;;;11.77;60.34;100732.98;106755;1274;22550;-50
2023/03/27 05:34:18;;;;;;;3.70;3.40;;;;;;;11.80;60.66;100729.42;106926;1270;25325;-49
2023/03/27 05:36:48;;;;;;;4.70;2.90;;;;;;;11.84;60.88;100734.19;106915;1273;25346;-50
2023/03/27 05:39:17;;;;;;;4.60;2.80;;;;;;;11.83;61.29;100738.05;106764;1270;23997;-50
2023/03/27 05:41:47;;;;;;;4.70;2.60;;;;;;;11.82;61.72;100738.77;106822;1269;25347;-50
2023/03/27 05:44:22;;;;;;;3.70;2.30;;;;;;;11.92;61.70;100741.79;106963;1269;25356;-49
2023/03/27 05:46:56;;;;;;;3.50;2.40;;;;;;;11.99;61.72;100772.02;106934;1269;24237;-50
2023/03/27 05:49:28;;;;;;;2.20;1.90;;;;;;;11.95;62.17;100746.23;106631;1269;22526;-50
2023/03/27 05:52:02;;;;;;;3.00;2.20;;;;;;;11.96;62.39;100734.70;106656;1276;25233;-50
2023/03/27 05:54:31;;;;;;;2.30;2.00;;;;;;;12.02;62.73;100758.02;106769;1276;24265;-50
2023/03/27 05:57:08;;;;;;;2.60;2.40;;;;;;;12.09;63.28;100777.64;106629;1270;22748;-50
2023/03/27 05:59:41;;;;;;;2.50;2.30;;;;;;;12.22;64.00;100757.27;106925;1269;26587;-50
2023/03/27 06:02:20;;;;;;;3.30;2.80;;;;;;;12.45;64.56;100765.98;106975;1269;25328;-50
2023/03/27 06:04:57;;;;;;;3.00;2.70;;;;;;;12.72;64.19;100762.58;106851;1269;23820;-50
2023/03/27 06:07:39;;;;;;;2.90;2.50;;;;;;;12.99;63.52;100755.79;106973;1256;25325;-49
2023/03/27 06:10:12;;;;;;;4.10;3.00;;;;;;;13.26;63.04;100753.94;106825;1270;25325;-49
2023/03/27 06:13:05;;;;;;;2.60;2.40;;;;;;;13.60;62.61;100751.92;106765;1272;25383;-49
2023/03/27 06:15:42;;;;;;;4.20;2.70;;;;;;;13.90;61.76;100745.41;106835;1270;25366;-49
2023/03/27 06:18:25;;;;;;;7.70;2.80;;;;;;;14.15;61.22;100744.86;106766;1270;25408;-49
2023/03/27 06:20:54;;;;;;;3.30;3.00;;;;;;;14.36;60.77;100742.55;106856;1269;25004;-49
2023/03/27 06:23:24;;;;;;;3.00;2.70;;;;;;;14.56;60.19;100746.83;106869;1273;22547;-49
2023/03/27 06:25:52;;;;;;;3.70;2.90;;;;;;;14.77;59.71;100739.24;106786;1270;24206;-49
2023/03/27 06:28:24;;;;;;;3.30;3.00;;;;;;;14.99;59.04;100744.98;106923;1253;25353;-49
2023/03/27 06:30:52;;;;;;;3.70;3.00;;;;;;;15.25;58.37;100744.08;106981;1269;25491;-49
2023/03/27 06:33:47;;;;;;;3.70;2.90;;;;;;;15.46;58.23;100742.19;106754;1273;25380;-48
2023/03/27 06:36:26;;;;;;;3.00;2.70;;;;;;;15.64;58.08;100739.13;106828;1269;25353;-50
2023/03/27 06:39:02;;;;;;;4.40;2.70;;;;;;;15.89;57.48;100736.10;106939;1268;25516;-49
2023/03/27 06:41:33;;;;;;;3.30;2.30;;;;;;;16.16;56.89;100727.74;106907;1253;25347;-49
2023/03/27 06:44:24;;;;;;;3.70;2.60;;;;;;;16.44;56.06;100724.69;106935;1269;25402;-50
2023/03/27 06:47:11;;;;;;;3.00;2.60;;;;;;;16.65;55.54;100717.10;106958;1269;25350;-50
2023/03/27 06:49:57;;;;;;;3.40;2.80;;;;;;;16.78;54.96;100715.60;106856;1269;25366;-50
2023/03/27 06:52:29;;;;;;;2.90;2.10;;;;;;;16.87;54.98;100720.23;107030;1269;24259;-50
2023/03/27 06:55:09;;;;;;;2.50;2.20;;;;;;;16.95;54.88;100719.51;106939;1269;25315;-50
2023/03/27 06:57:53;;;;;;;3.70;2.70;;;;;;;17.02;54.68;100716.85;106466;1276;22634;-49
2023/03/27 07:00:25;;;;;;;2.20;2.10;;;;;;;17.08;54.46;100712.89;106773;1272;25509;-49
2023/03/27 07:03:11;;;;;;;4.60;2.30;;;;;;;17.14;54.12;100711.20;106842;1275;22650;-50
2023/03/27 07:06:01;;;;;;;2.90;2.40;;;;;;;17.26;53.66;100711.48;106798;1272;25408;-50
2023/03/27 07:08:38;;;;;;;2.60;2.20;;;;;;;17.35;53.31;100706.41;106964;1269;25455;-50
2023/03/27 07:11:07;;;;;;;4.20;2.20;;;;;;;17.48;53.25;100705.61;106903;1253;24203;-49
2023/03/27 07:14:06;;;;;;;3.00;2.60;;;;;;;17.65;52.60;100708.06;106847;1272;25396;-50
2023/03/27 07:16:34;;;;;;;3.00;2.50;;;;;;;17.74;52.43;100705.65;106882;1270;25325;-50
2023/03/27 07:19:08;;;;;;;4.20;2.40;;;;;;;17.85;52.51;100700.17;106836;1270;25539;-49
2023/03/27 07:21:40;;;;;;;3.10;2.50;;;;;;;18.00;52.10;100703.60;106795;1273;25421;-49
2023/03/27 07:24:11;;;;;;;2.40;2.20;;;;;;;18.13;51.52;100699.23;106418;1260;25349;-50
2023/03/27 07:26:40;;;;;;;2.50;2.20;;;;;;;18.22;51.25;100700.84;106893;1272;25416;-49
2023/03/27 07:29:32;;;;;;;;;;;;;;;18.27;50.86;100702.33;110439;1268;23231;-50
2023/03/27 07:32:04;;;;;;;2.70;2.40;;;;;;;18.27;51.12;100705.99;110413;1270;22283;-49
2023/03/27 07:34:42;;;;;;;2.80;2.30;;;;;;;18.26;51.00;100710.48;110417;1276;22474;-49
2023/03/27 07:37:29;;;;;;;2.80;2.30;;;;;;;18.20;51.04;100707.06;110467;1272;22248;-49
2023/03/27 07:40:21;;;;;;;2.60;2.40;;;;;;;18.10;50.91;100701.86;110479;1269;22164;-49
2023/03/27 07:43:18;;;;;;;;;;;;;;;17.94;50.92;100700.98;110202;1273;22430;-49
2023/03/27 07:45:48;;;;;;;4.00;2.40;;;;;;;17.77;51.26;100697.23;110519;1269;22440;-49
2023/03/27 07:48:17;;;;;;;2.50;2.30;;;;;;;17.61;51.74;100695.64;110399;1270;22275;-49
2023/03/27 07:50:49;;;;;;;3.80;2.80;;;;;;;17.46;52.26;100694.48;110388;1276;22183;-49
2023/03/27 07:53:28;;;;;;;3.20;2.60;;;;;;;17.34;52.38;100686.67;110420;1269;22142;-49
2023/03/27 07:56:09;;;;;;;3.50;2.80;;;;;;;17.23;52.36;100682.15;110431;1270;22317;-49
2023/03/27 07:58:41;;;;;;;4.40;2.60;;;;;;;17.12;52.76;100684.83;110389;1276;22162;-49
2023/03/27 08:01:10;;;;;;;2.80;2.50;;;;;;;17.02;53.15;100682.32;110364;1270;22420;-49
2023/03/27 08:03:40;;;;;;;4.30;2.30;;;;;;;16.93;53.77;100679.80;110412;1269;22461;-49
2023/03/27 08:06:09;;;;;;;3.90;2.60;;;;;;;16.87;53.97;100676.78;110407;1269;22396;-49
2023/03/27 08:08:38;;;;;;;4.90;2.50;;;;;;;16.83;54.23;100671.01;110424;1270;22729;-50
2023/03/27 08:11:08;;;;;;;3.30;2.40;;;;;;;16.80;54.22;100666.63;110465;1269;22454;-49
2023/03/27 08:13:54;;;;;;;2.80;2.40;;;;;;;16.74;54.28;100662.17;110136;1276;23071;-49
2023/03/27 08:16:26;;;;;;;3.70;2.90;;;;;;;16.67;54.33;100655.17;109627;1271;1002505;-49
2023/03/27 08:18:56;;;;;;;3.10;2.40;;;;;;;16.60;54.38;100656.39;110407;1269;22188;-49
2023/03/27 08:21:25;;;;;;;3.60;2.60;;;;;;;16.53;54.63;100651.48;110384;1276;22088;-49
2023/03/27 08:23:57;;;;;;;2.90;2.40;;;;;;;16.47;54.93;100648.77;110376;1276;22213;-49
2023/03/27 08:26:35;;;;;;;4.10;2.60;;;;;;;16.40;55.14;100649.77;110528;1268;22131;-50
2023/03/27 08:29:07;;;;;;;3.40;2.50;;;;;;;16.38;55.45;100646.92;110135;1273;22187;-49
2023/03/27 08:31:36;;;;;;;3.20;2.70;;;;;;;16.35;55.85;100651.59;110435;1270;22125;-49
2023/03/27 08:34:05;;;;;;;4.30;2.60;;;;;;;16.31;56.22;100661.23;110186;1276;22107;-49
2023/03/27 08:36:59;;;;;;;2.90;2.00;;;;;;;16.36;56.18;100669.75;110445;1269;23062;-50
2023/03/27 08:39:49;;;;;;;3.40;2.30;;;;;;;16.41;56.11;100662.36;110361;1270;22225;-49
2023/03/27 08:42:20;;;;;;;4.30;2.40;;;;;;;16.43;56.03;100659.25;110132;1276;22471;-49
2023/03/27 08:44:53;;;;;;;2.40;2.00;;;;;;;16.47;56.15;100654.55;110390;1276;22142;-48
2023/03/27 08:47:40;;;;;;;2.90;2.60;;;;;;;16.49;56.06;100645.16;110025;1271;22207;-48
2023/03/27 08:50:42;;;;;;;3.30;2.70;;;;;;;16.51;55.81;100642.29;110063;1279;22392;-49
2023/03/27 08:53:46;;;;;;;4.10;2.30;;;;;;;16.51;55.82;100642.80;110066;1273;22452;-49
2023/03/27 08:56:17;;;;;;;5.50;2.20;;;;;;;16.52;56.02;100637.53;109843;1277;22425;-49
2023/03/27 08:58:48;;;;;;;2.80;2.00;;;;;;;16.56;56.21;100635.41;109823;1279;22309;-49
2023/03/27 09:01:28;;;;;;;6.30;2.20;;;;;;;16.60;56.11;100636.61;109812;1277;22276;-49
2023/03/27 09:04:04;;;;;;;4.70;2.20;;;;;;;16.59;56.26;100636.83;109742;1284;23066;-48
2023/03/27 09:06:47;;;;;;;4.00;2.20;;;;;;;16.64;55.82;100636.75;109780;1276;22378;-49
2023/03/27 09:09:58;;;;;;;2.80;1.70;;;;;;;16.66;55.75;100641.92;109779;1278;22830;-49
2023/03/27 09:12:58;;;;;;;5.00;2.20;;;;;;;16.65;55.69;100640.75;109550;1283;22201;-49
2023/03/27 09:15:55;;;;;;;3.50;2.40;;;;;;;16.62;55.53;100637.88;109497;1289;22184;-49
2023/03/27 09:18:29;;;;;;;5.80;2.20;;;;;;;16.58;55.56;100639.84;109618;1284;22174;-50
2023/03/27 09:21:05;;;;;;;6.10;2.20;;;;;;;16.53;55.83;100637.96;109580;1283;22383;-50
2023/03/27 09:23:45;;;;;;;3.70;2.00;;;;;;;16.52;55.90;100641.20;109594;1283;22474;-49
2023/03/27 09:26:50;;;;;;;5.10;2.30;;;;;;;16.52;55.85;100640.68;109743;1285;22153;-49
2023/03/27 09:29:42;;;;;;;5.40;2.50;;;;;;;16.51;55.96;100643.86;109564;1285;22887;-50
2023/03/27 09:32:54;;;;;;;4.40;1.90;;;;;;;16.54;56.01;100639.52;109850;1278;23188;-49
2023/03/27 09:35:22;;;;;;;4.40;2.10;;;;;;;16.58;55.98;100642.80;109787;1279;22167;-49
2023/03/27 09:37:58;;;;;;;7.10;2.40;;;;;;;16.63;55.91;100640.30;109918;1280;22199;-49
2023/03/27 09:40:48;;;;;;;4.00;2.00;;;;;;;16.66;55.84;100639.44;109945;1283;22297;-49
2023/03/27 09:43:19;;;;;;;4.80;1.90;;;;;;;16.69;55.72;100639.12;109763;1275;23045;-50
2023/03/27 09:45:51;;;;;;;4.50;2.10;;;;;;;16.71;55.76;100638.30;110015;1276;22265;-49
2023/03/27 09:48:34;;;;;;;5.80;2.10;;;;;;;16.73;56.08;100641.40;110404;1270;22204;-49
2023/03/27 09:51:36;;;;;;;4.00;1.90;;;;;;;16.76;56.19;100639.65;110299;1276;22191;-49
2023/03/27 09:54:06;;;;;;;5.40;2.50;;;;;;;16.80;55.99;100631.04;109968;1282;22425;-49
2023/03/27 09:56:38;;;;;;;4.90;2.50;;;;;;;16.83;56.01;100630.88;109611;1283;22224;-49
2023/03/27 09:59:31;;;;;;;5.50;2.50;;;;;;;16.86;55.88;100631.41;109806;1276;22838;-49
2023/03/27 10:02:19;;;;;;;4.60;1.90;;;;;;;16.90;56.01;100628.44;109843;1277;22396;-49
2023/03/27 10:05:16;;;;;;;4.40;2.90;;;;;;;16.94;55.77;100621.91;109780;1276;22362;-49
2023/03/27 10:07:49;;;;;;;8.30;2.40;;;;;;;17.00;55.49;100619.20;109850;1281;23131;-49
2023/03/27 10:10:40;;;;;;;3.40;2.40;;;;;;;17.03;55.36;100615.86;109788;1286;22183;-49
2023/03/27 10:13:43;;;;;;;5.40;2.40;;;;;;;17.06;55.61;100614.47;109757;1281;22324;-50
2023/03/27 10:16:16;;;;;;;5.10;2.20;;;;;;;17.08;55.42;100606.30;109843;1284;22998;-49
2023/03/27 10:18:54;;;;;;;5.00;2.70;;;;;;;17.10;55.12;100610.02;109825;1280;22830;-49
2023/03/27 10:21:27;;;;;;;5.90;3.00;;;;;;;17.12;55.07;100607.52;109798;1283;22741;-49
2023/03/27 10:24:03;;;;;;;5.80;3.30;;;;;;;17.12;55.03;100598.44;109909;1278;22317;-49
2023/03/27 10:27:03;;;;;;;4.60;2.60;;;;;;;17.11;55.17;100595.13;109697;1277;22480;-49
2023/03/27 10:29:33;;;;;;;;;;;;;;;17.10;55.10;100590.63;109850;1277;22444;-49
2023/03/27 10:32:04;;;;;;;5.80;3.30;;;;;;;17.09;55.07;100587.73;110024;1279;22988;-49
2023/03/27 10:34:56;;;;;;;5.30;3.80;;;;;;;17.07;55.26;100582.52;110163;1272;23044;-49
2023/03/27 10:38:06;;;;;;;6.30;3.30;;;;;;;17.07;55.47;100581.47;110142;1275;22471;-50
2023/03/27 10:40:51;;;;;;;5.40;3.10;;;;;;;17.09;55.63;100578.23;109828;1280;22253;-50
2023/03/27 10:43:32;;;;;;;6.00;3.60;;;;;;;17.11;55.57;100573.39;110135;1275;22740;-49
2023/03/27 10:46:04;;;;;;;;;;;;;;;17.15;55.35;100571.10;110100;1273;22425;-49
2023/03/27 10:49:01;;;;;;;8.20;4.00;;;;;;;17.18;55.18;100572.34;109884;1277;22751;-49
2023/03/27 10:52:00;;;;;;;5.50;3.60;;;;;;;17.18;54.89;100573.38;109849;1278;22421;-49
2023/03/27 10:54:56;;;;;;;6.70;4.20;;;;;;;17.17;54.98;100575.52;109965;1279;22247;-50
2023/03/27 10:57:31;;;;;;;7.00;4.40;;;;;;;17.15;55.07;100567.92;110071;1280;22344;-49
2023/03/27 11:00:16;;;;;;;6.20;4.00;;;;;;;17.14;55.13;100559.75;110205;1274;22213;-49
2023/03/27 11:03:30;;;;;;;7.40;4.10;;;;;;;17.15;55.10;100547.96;108945;1269;1002511;-49
2023/03/27 11:06:04;;;;;;;6.10;4.20;;;;;;;17.16;55.24;100542.65;109889;1276;22363;-50
2023/03/27 11:08:42;;;;;;;6.30;4.00;;;;;;;17.17;55.33;100535.60;109842;1280;22194;-49
2023/03/27 11:11:17;;;;;;;8.50;3.90;;;;;;;17.19;55.28;100531.24;109798;1278;22173;-49
2023/03/27 11:13:47;;;;;;;10.80;4.30;;;;;;;17.20;55.10;100529.61;109736;1283;23143;-50
2023/03/27 11:16:28;;;;;;;8.20;4.40;;;;;;;17.21;55.07;100522.36;109745;1280;22169;-49
2023/03/27 11:19:32;;;;;;;9.80;3.80;;;;;;;17.20;55.01;100515.41;109881;1280;22426;-49
2023/03/27 11:22:23;;;;;;;4.90;3.70;;;;;;;17.21;54.82;100516.27;109727;1280;22240;-49
2023/03/27 11:25:42;;;;;;;6.30;4.30;;;;;;;17.21;54.65;100513.42;109849;1279;22185;-49
2023/03/27 11:28:29;;;;;;;8.30;4.00;;;;;;;17.21;54.66;100508.39;109424;1281;22280;-49
2023/03/27 11:31:04;;;;;;;7.30;4.10;;;;;;;17.21;54.73;100507.14;109521;1286;22496;-49
2023/03/27 11:33:48;;;;;;;8.90;4.60;;;;;;;17.21;54.66;100502.75;109551;1282;22425;-49
2023/03/27 11:36:39;;;;;;;8.50;4.20;;;;;;;17.21;54.59;100500.61;109550;1289;22879;-49
2023/03/27 11:39:38;;;;;;;6.10;4.20;;;;;;;17.24;54.29;100493.80;109487;1283;22232;-49
2023/03/27 11:42:16;;;;;;;8.80;4.70;;;;;;;17.23;54.31;100491.24;109494;1282;22907;-49
2023/03/27 11:44:45;;;;;;;6.80;4.10;;;;;;;17.21;54.20;100492.42;108838;1282;1002392;-49
2023/03/27 11:48:21;;;;;;;9.50;5.10;;;;;;;17.17;54.24;100486.67;109738;1285;22188;-49
2023/03/27 11:51:00;;;;;;;7.40;4.70;;;;;;;17.13;54.26;100486.18;109449;1286;22228;-49
2023/03/27 11:53:51;;;;;;;7.10;4.90;;;;;;;17.10;54.32;100483.73;109193;1291;22162;-49
2023/03/27 11:56:48;;;;;;;6.60;4.80;;;;;;;17.04;54.40;100478.22;109375;1291;22427;-49
2023/03/27 11:59:34;;;;;;;8.40;5.50;;;;;;;17.00;54.49;100476.20;109404;1291;22242;-49
2023/03/27 12:02:29;;;;;;;5.70;5.10;;;;;;;16.96;54.56;100469.55;109365;1285;22669;-49
2023/03/27 12:05:00;;;;;;;8.90;4.90;;;;;;;16.96;54.57;100465.36;109634;1281;22200;-49
2023/03/27 12:08:05;;;;;;;7.50;5.50;;;;;;;16.97;54.78;100463.23;109937;1277;22171;-49
2023/03/27 12:10:36;;;;;;;7.30;5.50;;;;;;;16.96;54.78;100453.96;109824;1278;22823;-49
2023/03/27 12:13:49;;;;;;;8.90;5.60;;;;;;;16.97;54.69;100454.95;109974;1277;22224;-49